createdAt,value
2023-07-18T00:01:46.042Z,56.49
2023-07-18T00:04:13.363Z,57.06
2023-07-18T00:06:43.248Z,57.11
2023-07-18T00:09:10.443Z,57.40
2023-07-18T00:11:37.969Z,57.51
2023-07-18T00:14:05.037Z,57.54
2023-07-18T00:16:32.209Z,58.08
2023-07-18T00:19:00.593Z,58.53
2023-07-18T00:21:28.681Z,58.78
2023-07-18T00:23:55.868Z,58.72
2023-07-18T00:26:25.564Z,58.46
2023-07-18T00:28:54.711Z,60.33
2023-07-18T00:31:22.850Z,62.25
2023-07-18T00:33:50.222Z,62.83
2023-07-18T00:36:18.231Z,63.32
2023-07-18T00:38:45.447Z,63.82
2023-07-18T00:41:13.287Z,64.35
2023-07-18T00:43:40.464Z,64.38
2023-07-18T00:46:10.677Z,64.25
2023-07-18T00:48:38.332Z,63.83
2023-07-18T00:51:06.037Z,63.90
2023-07-18T00:53:33.631Z,64.00
2023-07-18T00:56:04.474Z,63.67
2023-07-18T00:58:35.222Z,63.75
2023-07-18T01:01:04.521Z,63.63
2023-07-18T01:03:32.663Z,63.44
2023-07-18T01:05:59.961Z,63.58
2023-07-18T01:08:27.166Z,63.89
2023-07-18T01:10:54.606Z,63.99
2023-07-18T01:13:21.672Z,63.84
2023-07-18T01:15:50.739Z,63.85
2023-07-18T01:18:17.905Z,63.85
2023-07-18T01:20:47.466Z,63.99
2023-07-18T01:23:15.369Z,64.75
2023-07-18T01:25:43.846Z,65.20
2023-07-18T01:28:12.209Z,66.44
2023-07-18T01:30:39.655Z,67.53
2023-07-18T01:33:08.183Z,67.96
2023-07-18T01:35:35.436Z,68.57
2023-07-18T01:38:02.624Z,68.82
2023-07-18T01:40:30.005Z,68.99
2023-07-18T01:42:58.944Z,68.98
2023-07-18T01:45:29.522Z,69.50
2023-07-18T01:47:57.883Z,69.85
2023-07-18T01:50:25.419Z,70.34
2023-07-18T01:52:52.631Z,70.68
2023-07-18T01:55:21.318Z,70.96
2023-07-18T01:57:49.924Z,71.03
2023-07-18T02:00:20.869Z,70.84
2023-07-18T02:02:51.165Z,70.97
2023-07-18T02:05:23.684Z,71.41
2023-07-18T02:07:51.212Z,71.82
2023-07-18T02:10:23.009Z,71.87
2023-07-18T02:12:51.823Z,72.74
2023-07-18T02:15:21.327Z,72.93
2023-07-18T02:17:49.249Z,73.07
2023-07-18T02:20:17.899Z,72.99
2023-07-18T02:22:46.435Z,73.12
2023-07-18T02:25:16.672Z,72.89
2023-07-18T02:27:44.641Z,73.00
2023-07-18T02:30:13.461Z,73.26
2023-07-18T02:32:43.261Z,73.39
2023-07-18T02:35:19.526Z,73.10
2023-07-18T02:37:47.552Z,73.17
2023-07-18T02:40:16.997Z,72.61
2023-07-18T02:42:44.257Z,72.77
2023-07-18T02:45:11.793Z,73.02
2023-07-18T02:47:40.162Z,72.70
2023-07-18T02:50:09.122Z,72.34
2023-07-18T02:52:37.035Z,72.36
2023-07-18T02:55:04.764Z,72.40
2023-07-18T02:57:32.903Z,72.39
2023-07-18T03:00:00.953Z,72.65
2023-07-18T03:02:32.612Z,72.23
2023-07-18T03:05:00.082Z,72.10
2023-07-18T03:07:27.291Z,71.89
2023-07-18T03:09:55.273Z,72.15
2023-07-18T03:12:22.666Z,72.26
2023-07-18T03:14:51.299Z,72.25
2023-07-18T03:17:18.384Z,71.97
2023-07-18T03:19:45.513Z,71.41
2023-07-18T03:22:12.952Z,71.42
2023-07-18T03:24:40.423Z,71.42
2023-07-18T03:27:07.687Z,70.86
2023-07-18T03:29:34.951Z,70.86
2023-07-18T03:32:02.494Z,70.47
2023-07-18T03:34:30.153Z,70.32
2023-07-18T03:36:57.474Z,70.18
2023-07-18T03:39:25.019Z,70.31
2023-07-18T03:41:52.492Z,70.66
2023-07-18T03:44:19.634Z,70.56
2023-07-18T03:46:47.020Z,70.42
2023-07-18T03:49:14.213Z,70.41
2023-07-18T03:51:41.553Z,70.41
2023-07-18T03:54:08.782Z,70.26
2023-07-18T03:56:36.319Z,70.38
2023-07-18T03:59:03.453Z,70.68
2023-07-18T04:01:30.586Z,71.02
2023-07-18T04:03:57.751Z,71.28
2023-07-18T04:06:25.066Z,70.91
2023-07-18T04:08:52.243Z,70.91
2023-07-18T04:11:19.634Z,71.32
2023-07-18T04:13:47.079Z,70.52
2023-07-18T04:16:14.313Z,70.24
2023-07-18T04:18:41.490Z,70.50
2023-07-18T04:21:08.677Z,69.40
2023-07-18T04:23:35.874Z,69.64
2023-07-18T04:26:04.915Z,69.27
2023-07-18T04:28:35.272Z,69.39
2023-07-18T04:31:03.298Z,69.21
2023-07-18T04:33:38.689Z,68.66
2023-07-18T04:36:07.203Z,68.49
2023-07-18T04:38:35.797Z,68.71
2023-07-18T04:41:04.303Z,68.25
2023-07-18T04:43:31.544Z,68.12
2023-07-18T04:45:58.973Z,67.82
2023-07-18T04:48:26.829Z,67.23
2023-07-18T04:51:03.275Z,66.51
2023-07-18T04:53:32.006Z,67.00
2023-07-18T04:55:59.431Z,67.09
2023-07-18T04:58:27.862Z,67.25
2023-07-18T05:00:58.584Z,66.77
2023-07-18T05:03:26.615Z,67.05
2023-07-18T05:05:54.639Z,66.40
2023-07-18T05:08:22.527Z,66.54
2023-07-18T05:10:51.250Z,66.22
2023-07-18T05:13:18.640Z,66.32
2023-07-18T05:15:46.233Z,65.77
2023-07-18T05:18:13.513Z,65.39
2023-07-18T05:20:40.749Z,64.02
2023-07-18T05:23:08.021Z,64.16
2023-07-18T05:25:36.310Z,64.58
2023-07-18T05:28:05.191Z,64.42
2023-07-18T05:30:32.467Z,64.24
2023-07-18T05:32:59.787Z,64.71
2023-07-18T05:35:26.964Z,63.88
2023-07-18T05:37:54.038Z,64.13
2023-07-18T05:40:22.635Z,63.41
2023-07-18T05:42:50.352Z,63.50
2023-07-18T05:45:17.828Z,63.23
2023-07-18T05:47:45.245Z,62.49
2023-07-18T05:50:13.248Z,61.81
2023-07-18T05:52:40.592Z,61.88
2023-07-18T05:55:08.979Z,61.62
2023-07-18T05:57:36.269Z,60.84
2023-07-18T06:00:07.397Z,60.17
2023-07-18T06:02:39.664Z,60.11
2023-07-18T06:05:08.407Z,60.29
2023-07-18T06:07:35.494Z,60.53
2023-07-18T06:10:03.035Z,60.22
2023-07-18T06:12:30.283Z,60.26
2023-07-18T06:14:57.514Z,60.06
2023-07-18T06:17:24.781Z,59.02
2023-07-18T06:19:51.987Z,58.96
2023-07-18T06:22:19.650Z,58.11
2023-07-18T06:24:47.588Z,57.85
2023-07-18T06:27:14.807Z,58.01
2023-07-18T06:29:41.910Z,57.52
2023-07-18T06:32:09.906Z,57.43
2023-07-18T06:34:42.590Z,57.38
2023-07-18T06:37:11.375Z,56.37
2023-07-18T06:39:39.447Z,55.62
2023-07-18T06:42:07.807Z,54.99
2023-07-18T06:44:35.060Z,54.62
2023-07-18T06:47:02.553Z,54.31
2023-07-18T06:49:29.683Z,53.26
2023-07-18T06:51:56.937Z,53.21
2023-07-18T06:54:24.140Z,52.95
2023-07-18T06:56:51.302Z,53.12
2023-07-18T06:59:18.514Z,53.32
2023-07-18T07:01:45.718Z,52.04
2023-07-18T07:04:13.016Z,50.68
2023-07-18T07:06:43.413Z,49.71
2023-07-18T07:09:14.614Z,49.20
2023-07-18T07:11:43.285Z,49.47
2023-07-18T07:14:10.482Z,49.37
2023-07-18T07:16:37.683Z,49.28
2023-07-18T07:19:07.005Z,49.28
2023-07-18T07:21:34.131Z,49.48
2023-07-18T07:24:02.150Z,48.42
2023-07-18T07:26:29.446Z,48.03
2023-07-18T07:28:56.709Z,47.24
2023-07-18T07:31:24.696Z,46.57
2023-07-18T07:33:52.376Z,46.17
2023-07-18T07:36:20.102Z,46.38
2023-07-18T07:38:47.564Z,46.42
2023-07-18T07:41:15.036Z,46.21
2023-07-18T07:43:42.232Z,45.66
2023-07-18T07:46:09.462Z,45.94
2023-07-18T07:48:36.631Z,45.47
2023-07-18T07:51:07.553Z,44.85
2023-07-18T07:53:34.868Z,44.52
2023-07-18T07:56:01.997Z,44.79
2023-07-18T07:58:29.157Z,43.34
2023-07-18T08:00:56.464Z,43.45
2023-07-18T08:03:23.656Z,43.33
2023-07-18T08:05:50.930Z,43.47
2023-07-18T08:08:19.268Z,42.85
2023-07-18T08:10:46.510Z,42.02
2023-07-18T08:13:15.891Z,41.13
2023-07-18T08:15:43.140Z,40.81
2023-07-18T08:18:10.354Z,41.13
2023-07-18T08:20:38.294Z,39.87
2023-07-18T08:23:05.543Z,39.75
2023-07-18T08:25:32.865Z,39.68
2023-07-18T08:28:00.118Z,39.39
2023-07-18T08:30:27.188Z,39.18
2023-07-18T08:32:54.378Z,39.45
2023-07-18T08:35:21.644Z,39.06
2023-07-18T08:37:48.975Z,38.49
2023-07-18T08:40:16.401Z,38.92
2023-07-18T08:42:44.561Z,38.23
2023-07-18T08:45:15.353Z,37.76
2023-07-18T08:47:45.065Z,36.98
2023-07-18T08:50:12.635Z,36.83
2023-07-18T08:52:40.996Z,37.61
2023-07-18T08:55:09.435Z,38.61
2023-07-18T08:57:37.336Z,37.65
2023-07-18T09:00:06.157Z,37.35
2023-07-18T09:02:33.532Z,36.92
2023-07-18T09:05:00.874Z,36.46
2023-07-18T09:07:28.825Z,35.83
2023-07-18T09:09:59.610Z,34.69
2023-07-18T09:12:28.041Z,35.52
2023-07-18T09:14:58.526Z,35.68
2023-07-18T09:17:26.025Z,35.55
2023-07-18T09:19:54.097Z,34.89
2023-07-18T09:22:21.214Z,35.40
2023-07-18T09:24:49.421Z,35.76
2023-07-18T09:27:19.590Z,34.94
2023-07-18T09:29:50.479Z,34.83
2023-07-18T09:32:19.427Z,34.74
2023-07-18T09:34:57.611Z,34.63
2023-07-18T09:37:25.097Z,34.92
2023-07-18T09:39:52.422Z,35.31
2023-07-18T09:42:21.036Z,35.07
2023-07-18T09:44:52.642Z,34.34
2023-07-18T09:47:21.182Z,35.01
2023-07-18T09:49:48.705Z,34.64
2023-07-18T09:52:19.632Z,33.99
2023-07-18T09:54:48.252Z,33.46
2023-07-18T09:57:17.521Z,33.19
2023-07-18T09:59:46.883Z,33.75
2023-07-18T10:02:14.123Z,33.80
2023-07-18T10:04:41.355Z,33.15
2023-07-18T10:07:12.544Z,33.32
2023-07-18T10:09:40.563Z,34.03
2023-07-18T10:12:08.454Z,34.09
2023-07-18T10:14:52.099Z,33.61
2023-07-18T10:17:35.562Z,34.32
2023-07-18T10:20:13.128Z,34.38
2023-07-18T10:22:51.687Z,34.85
2023-07-18T10:25:19.833Z,35.68
2023-07-18T10:27:50.158Z,35.76
2023-07-18T10:30:20.030Z,36.25
2023-07-18T10:32:58.411Z,35.95
2023-07-18T10:35:28.093Z,36.03
2023-07-18T10:37:57.652Z,34.84
2023-07-18T10:40:53.914Z,33.40
2023-07-18T10:43:21.819Z,33.29
2023-07-18T10:45:49.060Z,32.66
2023-07-18T10:48:18.453Z,32.39
2023-07-18T10:50:47.517Z,31.96
2023-07-18T10:53:16.869Z,32.19
2023-07-18T10:55:47.287Z,31.48
2023-07-18T10:58:22.060Z,31.93
2023-07-18T11:00:51.192Z,32.19
2023-07-18T11:03:28.724Z,31.73
2023-07-18T11:05:56.079Z,32.10
2023-07-18T11:08:27.633Z,32.59
2023-07-18T11:11:04.652Z,31.91
2023-07-18T11:13:34.298Z,32.14
2023-07-18T11:16:09.006Z,32.54
2023-07-18T11:18:42.343Z,33.46
2023-07-18T11:21:10.914Z,32.70
2023-07-18T11:23:40.114Z,33.00
2023-07-18T11:26:18.164Z,33.01
2023-07-18T11:28:50.114Z,32.97
2023-07-18T11:31:43.836Z,33.10
2023-07-18T11:34:11.261Z,33.55
2023-07-18T11:36:41.052Z,32.63
2023-07-18T11:39:32.016Z,32.63
2023-07-18T11:42:10.156Z,33.03
2023-07-18T11:44:43.542Z,33.10
2023-07-18T11:47:14.563Z,32.68
2023-07-18T11:49:44.679Z,32.01
2023-07-18T11:52:12.482Z,32.60
2023-07-18T11:54:39.994Z,33.79
2023-07-18T11:57:07.754Z,34.43
2023-07-18T11:59:35.361Z,34.36
2023-07-18T12:02:02.955Z,34.41
2023-07-18T12:04:30.608Z,34.87
2023-07-18T12:06:59.078Z,35.31
2023-07-18T12:09:26.488Z,34.73
2023-07-18T12:11:55.671Z,33.95
2023-07-18T12:14:22.934Z,34.40
2023-07-18T12:16:50.159Z,34.73
2023-07-18T12:19:17.542Z,34.75
2023-07-18T12:21:44.749Z,34.79
2023-07-18T12:24:12.096Z,34.25
2023-07-18T12:26:39.273Z,33.98
2023-07-18T12:29:06.705Z,34.31
2023-07-18T12:31:35.474Z,34.55
2023-07-18T12:34:04.185Z,33.55
2023-07-18T12:36:31.283Z,33.38
2023-07-18T12:38:58.365Z,34.09
2023-07-18T12:41:25.551Z,34.20
2023-07-18T12:43:53.076Z,34.59
2023-07-18T12:46:26.772Z,34.61
2023-07-18T12:49:03.646Z,34.60
2023-07-18T12:51:32.404Z,34.87
2023-07-18T12:53:59.621Z,34.55
2023-07-18T12:56:26.914Z,35.22
2023-07-18T12:58:54.061Z,34.68
2023-07-18T13:01:21.481Z,34.14
2023-07-18T13:03:48.636Z,33.74
2023-07-18T13:06:15.848Z,33.65
2023-07-18T13:08:43.034Z,33.96
2023-07-18T13:11:10.280Z,33.19
2023-07-18T13:13:37.559Z,33.18
2023-07-18T13:16:05.143Z,33.66
2023-07-18T13:18:32.345Z,33.76
2023-07-18T13:21:00.493Z,34.08
2023-07-18T13:23:27.682Z,33.69
2023-07-18T13:25:54.732Z,33.41
2023-07-18T13:28:21.928Z,33.47
2023-07-18T13:30:49.025Z,32.72
2023-07-18T13:33:17.536Z,32.89
2023-07-18T13:35:44.548Z,32.83
2023-07-18T13:38:11.623Z,33.01
2023-07-18T13:40:38.860Z,32.88
2023-07-18T13:43:06.662Z,32.86
2023-07-18T13:45:34.295Z,33.37
2023-07-18T13:48:04.796Z,33.22
2023-07-18T13:50:32.322Z,33.34
2023-07-18T13:53:00.154Z,33.34
2023-07-18T13:55:28.417Z,33.95
2023-07-18T13:57:55.577Z,34.33
2023-07-18T14:00:22.920Z,34.32
2023-07-18T14:02:51.034Z,34.60
2023-07-18T14:05:18.430Z,35.07
2023-07-18T14:07:45.564Z,34.93
2023-07-18T14:10:12.922Z,34.89
2023-07-18T14:12:42.490Z,34.93
2023-07-18T14:15:12.342Z,34.69
2023-07-18T14:17:39.642Z,33.79
2023-07-18T14:20:07.567Z,34.31
2023-07-18T14:22:35.055Z,34.09
2023-07-18T14:25:03.601Z,34.49
2023-07-18T14:27:30.791Z,34.74
2023-07-18T14:29:58.081Z,35.24
2023-07-18T14:32:25.472Z,35.36
2023-07-18T14:34:52.912Z,35.34
2023-07-18T14:37:20.116Z,34.60
2023-07-18T14:39:59.524Z,35.24
2023-07-18T14:42:26.947Z,35.37
2023-07-18T14:44:54.569Z,35.33
2023-07-18T14:47:21.926Z,35.72
2023-07-18T14:49:49.153Z,35.93
2023-07-18T14:52:17.340Z,35.30
2023-07-18T14:54:44.873Z,35.35
2023-07-18T14:57:12.374Z,35.71
2023-07-18T14:59:39.525Z,35.38
2023-07-18T15:02:07.063Z,35.16
2023-07-18T15:04:34.282Z,34.52
2023-07-18T15:07:01.525Z,34.68
2023-07-18T15:09:28.736Z,34.63
2023-07-18T15:11:56.104Z,34.75
2023-07-18T15:14:23.975Z,35.03
2023-07-18T15:16:51.304Z,35.12
2023-07-18T15:19:18.548Z,34.84
2023-07-18T15:21:45.766Z,35.38
2023-07-18T15:24:12.909Z,35.20
2023-07-18T15:26:40.457Z,35.39
2023-07-18T15:29:07.652Z,35.20
2023-07-18T15:31:34.882Z,35.26
2023-07-18T15:34:02.097Z,35.37
2023-07-18T15:36:29.317Z,35.42
2023-07-18T15:38:56.410Z,35.57
2023-07-18T15:41:23.629Z,35.25
2023-07-18T15:43:50.767Z,35.49
2023-07-18T15:46:19.427Z,35.48
2023-07-18T15:48:46.995Z,35.58
2023-07-18T15:51:14.750Z,35.76
2023-07-18T15:53:41.873Z,35.73
2023-07-18T15:56:10.793Z,35.36
2023-07-18T15:58:38.012Z,36.26
2023-07-18T16:01:05.317Z,35.62
2023-07-18T16:03:32.746Z,38.64
2023-07-18T16:06:00.203Z,36.36
2023-07-18T16:08:27.678Z,35.54
2023-07-18T16:10:55.245Z,35.02
2023-07-18T16:13:22.510Z,35.41
2023-07-18T16:15:50.019Z,35.50
2023-07-18T16:18:17.394Z,35.34
2023-07-18T16:20:44.708Z,35.29
2023-07-18T16:23:12.097Z,35.45
2023-07-18T16:25:39.565Z,35.51
2023-07-18T16:28:06.894Z,35.93
2023-07-18T16:30:34.760Z,35.95
2023-07-18T16:33:02.325Z,35.77
2023-07-18T16:35:29.561Z,35.31
2023-07-18T16:37:56.736Z,35.48
2023-07-18T16:40:23.858Z,35.47
2023-07-18T16:42:51.069Z,35.53
2023-07-18T16:45:18.691Z,35.78
2023-07-18T16:47:47.279Z,35.98
2023-07-18T16:50:15.520Z,36.07
2023-07-18T16:52:44.954Z,35.80
2023-07-18T16:55:12.085Z,35.94
2023-07-18T16:57:40.597Z,36.18
2023-07-18T17:00:08.340Z,36.59
2023-07-18T17:02:36.222Z,36.87
2023-07-18T17:05:03.751Z,36.93
2023-07-18T17:07:31.013Z,37.09
2023-07-18T17:09:59.697Z,37.22
2023-07-18T17:12:27.157Z,37.02
2023-07-18T17:14:54.406Z,36.85
2023-07-18T17:17:21.607Z,37.27
2023-07-18T17:20:05.266Z,37.44
2023-07-18T17:22:35.235Z,36.66
2023-07-18T17:25:05.542Z,36.64
2023-07-18T17:27:36.179Z,36.17
2023-07-18T17:30:03.504Z,36.13
2023-07-18T17:32:30.548Z,36.07
2023-07-18T17:34:57.694Z,36.22
2023-07-18T17:37:25.290Z,35.99
2023-07-18T17:39:52.388Z,36.22
2023-07-18T17:42:19.664Z,36.28
2023-07-18T17:44:46.793Z,36.36
2023-07-18T17:47:14.773Z,36.20
2023-07-18T17:49:42.082Z,36.45
2023-07-18T17:52:11.852Z,36.61
2023-07-18T17:54:39.080Z,36.83
2023-07-18T17:57:06.295Z,37.10
2023-07-18T17:59:34.160Z,36.74
2023-07-18T18:02:01.405Z,37.02
2023-07-18T18:04:28.546Z,37.73
2023-07-18T18:06:55.666Z,37.97
2023-07-18T18:09:23.834Z,38.54
2023-07-18T18:11:52.544Z,38.58
2023-07-18T18:14:20.002Z,38.58
2023-07-18T18:16:47.440Z,38.96
2023-07-18T18:19:14.633Z,38.82
2023-07-18T18:21:41.876Z,39.37
2023-07-18T18:24:09.022Z,39.56
2023-07-18T18:26:37.004Z,39.79
2023-07-18T18:29:09.120Z,40.32
2023-07-18T18:31:36.696Z,40.59
2023-07-18T18:34:03.999Z,40.91
2023-07-18T18:36:31.607Z,41.46
2023-07-18T18:38:58.830Z,41.50
2023-07-18T18:41:25.971Z,42.00
2023-07-18T18:43:56.171Z,42.61
2023-07-18T18:46:24.519Z,42.74
2023-07-18T18:48:51.763Z,43.43
2023-07-18T18:51:19.227Z,43.41
2023-07-18T18:53:46.834Z,43.34
2023-07-18T18:56:14.294Z,42.60
2023-07-18T18:58:41.591Z,42.39
2023-07-18T19:01:08.997Z,42.80
2023-07-18T19:03:40.297Z,43.44
2023-07-18T19:06:08.094Z,43.38
2023-07-18T19:08:35.258Z,44.19
2023-07-18T19:11:12.330Z,45.26
2023-07-18T19:13:47.229Z,44.96
2023-07-18T19:16:47.014Z,44.46
2023-07-18T19:19:30.369Z,43.90
2023-07-18T19:22:15.098Z,43.60
2023-07-18T19:25:00.725Z,44.55
2023-07-18T19:27:38.616Z,44.31
2023-07-18T19:30:08.153Z,46.08
2023-07-18T19:32:35.423Z,45.62
2023-07-18T19:35:04.296Z,45.53
2023-07-18T19:37:31.661Z,45.35
2023-07-18T19:39:59.201Z,46.48
2023-07-18T19:42:26.894Z,46.65
2023-07-18T19:44:55.392Z,47.78
2023-07-18T19:47:22.723Z,46.55
2023-07-18T19:50:11.337Z,46.80
2023-07-18T19:52:41.270Z,46.98
2023-07-18T19:55:12.022Z,47.26
2023-07-18T19:57:41.703Z,47.61
2023-07-18T20:00:09.916Z,47.78
2023-07-18T20:02:47.973Z,48.41
2023-07-18T20:05:22.808Z,47.57
2023-07-18T20:07:59.032Z,47.44
2023-07-18T20:10:39.241Z,48.47
2023-07-18T20:13:12.141Z,49.03
2023-07-18T20:15:45.941Z,48.59
2023-07-18T20:18:16.010Z,48.65
2023-07-18T20:20:45.705Z,48.92
2023-07-18T20:23:19.597Z,49.05
2023-07-18T20:26:04.182Z,49.02
2023-07-18T20:28:36.169Z,49.27
2023-07-18T20:31:13.477Z,49.50
2023-07-18T20:33:45.028Z,49.74
2023-07-18T20:36:12.375Z,49.76
2023-07-18T20:38:40.782Z,49.90
2023-07-18T20:41:10.287Z,50.06
2023-07-18T20:43:48.846Z,50.26
2023-07-18T20:46:18.438Z,50.46
2023-07-18T20:48:47.215Z,50.83
2023-07-18T20:51:20.269Z,50.76
2023-07-18T20:53:53.846Z,50.90
2023-07-18T20:56:32.809Z,51.01
2023-07-18T20:59:04.244Z,51.64
2023-07-18T21:01:33.609Z,51.85
2023-07-18T21:04:01.348Z,52.09
2023-07-18T21:06:34.227Z,52.34
2023-07-18T21:09:01.534Z,52.68
2023-07-18T21:11:28.647Z,53.20
2023-07-18T21:13:55.710Z,53.54
2023-07-18T21:16:23.316Z,53.50
2023-07-18T21:18:50.581Z,53.95
2023-07-18T21:21:18.343Z,54.82
2023-07-18T21:23:45.956Z,54.75
2023-07-18T21:26:13.279Z,53.44
2023-07-18T21:28:53.586Z,52.62
2023-07-18T21:31:21.599Z,53.05
2023-07-18T21:33:49.802Z,53.46
2023-07-18T21:36:16.975Z,53.32
2023-07-18T21:38:44.118Z,53.47
2023-07-18T21:41:11.244Z,53.64
2023-07-18T21:43:38.554Z,54.37
2023-07-18T21:46:05.771Z,54.67
2023-07-18T21:48:33.022Z,54.64
2023-07-18T21:51:00.161Z,54.24
2023-07-18T21:53:27.710Z,54.04
2023-07-18T21:55:55.035Z,54.23
2023-07-18T21:58:22.647Z,54.11
2023-07-18T22:00:50.185Z,54.45
2023-07-18T22:03:17.897Z,55.03
2023-07-18T22:05:45.119Z,54.55
2023-07-18T22:08:12.282Z,54.37
2023-07-18T22:10:39.547Z,54.78
2023-07-18T22:13:07.232Z,55.10
2023-07-18T22:15:34.531Z,55.33
2023-07-18T22:18:12.191Z,55.66
2023-07-18T22:20:47.823Z,55.67
2023-07-18T22:23:14.985Z,55.70
2023-07-18T22:25:42.196Z,55.77
2023-07-18T22:28:09.317Z,56.08
2023-07-18T22:30:36.623Z,55.95
2023-07-18T22:33:04.484Z,55.70
2023-07-18T22:35:31.706Z,56.00
2023-07-18T22:37:59.284Z,55.73
2023-07-18T22:40:26.496Z,56.23
2023-07-18T22:42:53.809Z,56.32
2023-07-18T22:45:21.095Z,56.37
2023-07-18T22:47:48.314Z,57.11
2023-07-18T22:50:15.567Z,56.78
2023-07-18T22:52:42.725Z,56.90
2023-07-18T22:55:10.076Z,57.36
2023-07-18T22:57:37.195Z,57.71
2023-07-18T23:00:05.359Z,58.29
2023-07-18T23:02:32.549Z,57.78
2023-07-18T23:04:59.733Z,57.65
2023-07-18T23:07:27.701Z,57.94
2023-07-18T23:09:54.786Z,57.64
2023-07-18T23:12:22.087Z,57.54
2023-07-18T23:14:49.245Z,58.31
2023-07-18T23:17:16.308Z,58.25
2023-07-18T23:19:43.531Z,58.17
2023-07-18T23:22:10.668Z,58.08
2023-07-18T23:24:38.269Z,58.53
2023-07-18T23:27:05.795Z,58.82
2023-07-18T23:29:33.123Z,59.19
2023-07-18T23:32:00.467Z,59.07
2023-07-18T23:34:27.570Z,58.70
2023-07-18T23:36:54.702Z,57.88
2023-07-18T23:39:21.939Z,58.11
2023-07-18T23:41:49.018Z,58.01
2023-07-18T23:44:16.886Z,57.96
2023-07-18T23:46:44.212Z,57.68
2023-07-18T23:49:11.454Z,57.35
2023-07-18T23:51:38.624Z,57.37
2023-07-18T23:54:05.908Z,57.92
2023-07-18T23:56:33.933Z,58.14
2023-07-18T23:59:01.160Z,58.55
